sensor_id;sensor_type;location;lat;lon;timestamp;P1;durP1;ratioP1;P2;durP2;ratioP2
49820;SDS011;36893;52.520;13.450;2023-12-04T00:07:13;10.38;;;3.75;;
49820;SDS011;36893;52.520;13.450;2023-12-04T00:17:14;8.60;;;3.20;;
49820;SDS011;36893;52.520;13.450;2023-12-04T00:27:14;7.13;;;3.50;;
49820;SDS011;36893;52.520;13.450;2023-12-04T00:37:18;8.37;;;3.93;;
49820;SDS011;36893;52.520;13.450;2023-12-04T00:47:18;6.60;;;3.35;;
49820;SDS011;36893;52.520;13.450;2023-12-04T00:57:19;8.70;;;3.23;;
49820;SDS011;36893;52.520;13.450;2023-12-04T01:07:20;7.10;;;2.60;;
49820;SDS011;36893;52.520;13.450;2023-12-04T01:17:20;7.20;;;3.37;;
49820;SDS011;36893;52.520;13.450;2023-12-04T01:27:21;7.43;;;2.90;;
49820;SDS011;36893;52.520;13.450;2023-12-04T01:37:21;6.33;;;3.17;;
49820;SDS011;36893;52.520;13.450;2023-12-04T01:47:22;7.97;;;3.53;;
49820;SDS011;36893;52.520;13.450;2023-12-04T01:57:23;5.80;;;2.87;;
49820;SDS011;36893;52.520;13.450;2023-12-04T02:07:23;6.93;;;2.93;;
49820;SDS011;36893;52.520;13.450;2023-12-04T02:17:24;4.73;;;2.67;;
49820;SDS011;36893;52.520;13.450;2023-12-04T02:27:27;7.10;;;2.95;;
49820;SDS011;36893;52.520;13.450;2023-12-04T02:37:34;6.82;;;2.35;;
49820;SDS011;36893;52.520;13.450;2023-12-04T02:47:35;5.97;;;2.38;;
49820;SDS011;36893;52.520;13.450;2023-12-04T02:57:35;6.67;;;2.70;;
49820;SDS011;36893;52.520;13.450;2023-12-04T03:07:36;6.27;;;2.90;;
49820;SDS011;36893;52.520;13.450;2023-12-04T03:17:36;5.80;;;2.53;;
49820;SDS011;36893;52.520;13.450;2023-12-04T03:27:37;6.40;;;2.80;;
49820;SDS011;36893;52.520;13.450;2023-12-04T03:37:39;4.75;;;2.60;;
49820;SDS011;36893;52.520;13.450;2023-12-04T03:47:39;3.97;;;1.97;;
49820;SDS011;36893;52.520;13.450;2023-12-04T03:57:40;5.40;;;2.37;;
49820;SDS011;36893;52.520;13.450;2023-12-04T04:07:41;5.65;;;2.47;;
49820;SDS011;36893;52.520;13.450;2023-12-04T04:17:42;5.72;;;2.05;;
49820;SDS011;36893;52.520;13.450;2023-12-04T04:27:43;6.13;;;2.50;;
49820;SDS011;36893;52.520;13.450;2023-12-04T04:37:43;4.03;;;2.00;;
49820;SDS011;36893;52.520;13.450;2023-12-04T04:47:44;3.27;;;1.80;;
49820;SDS011;36893;52.520;13.450;2023-12-04T04:57:45;4.67;;;2.13;;
49820;SDS011;36893;52.520;13.450;2023-12-04T05:07:45;4.20;;;2.10;;
49820;SDS011;36893;52.520;13.450;2023-12-04T05:17:46;9.57;;;2.03;;
49820;SDS011;36893;52.520;13.450;2023-12-04T05:27:47;5.18;;;1.92;;
49820;SDS011;36893;52.520;13.450;2023-12-04T05:37:47;5.77;;;2.57;;
49820;SDS011;36893;52.520;13.450;2023-12-04T05:47:48;3.83;;;1.97;;
49820;SDS011;36893;52.520;13.450;2023-12-04T05:57:49;3.93;;;2.00;;
49820;SDS011;36893;52.520;13.450;2023-12-04T06:07:49;6.10;;;2.00;;
49820;SDS011;36893;52.520;13.450;2023-12-04T06:17:50;4.23;;;2.13;;
49820;SDS011;36893;52.520;13.450;2023-12-04T06:27:50;4.77;;;2.00;;
49820;SDS011;36893;52.520;13.450;2023-12-04T06:37:53;5.75;;;2.25;;
49820;SDS011;36893;52.520;13.450;2023-12-04T06:47:55;7.18;;;2.25;;
49820;SDS011;36893;52.520;13.450;2023-12-04T06:57:56;7.43;;;2.00;;
49820;SDS011;36893;52.520;13.450;2023-12-04T07:07:57;20.13;;;3.20;;
49820;SDS011;36893;52.520;13.450;2023-12-04T07:17:58;11.70;;;2.83;;
49820;SDS011;36893;52.520;13.450;2023-12-04T07:27:58;23.70;;;3.20;;
49820;SDS011;36893;52.520;13.450;2023-12-04T07:37:59;14.43;;;3.53;;
49820;SDS011;36893;52.520;13.450;2023-12-04T07:47:59;12.90;;;3.53;;
49820;SDS011;36893;52.520;13.450;2023-12-04T07:58:00;7.67;;;3.00;;
49820;SDS011;36893;52.520;13.450;2023-12-04T08:08:01;9.93;;;3.67;;
49820;SDS011;36893;52.520;13.450;2023-12-04T08:18:01;7.93;;;3.33;;
49820;SDS011;36893;52.520;13.450;2023-12-04T08:28:02;10.27;;;2.42;;
49820;SDS011;36893;52.520;13.450;2023-12-04T08:38:03;16.70;;;3.42;;
49820;SDS011;36893;52.520;13.450;2023-12-04T08:48:04;6.13;;;2.53;;
49820;SDS011;36893;52.520;13.450;2023-12-04T08:58:05;8.35;;;2.42;;
49820;SDS011;36893;52.520;13.450;2023-12-04T09:08:05;11.07;;;3.00;;
49820;SDS011;36893;52.520;13.450;2023-12-04T09:18:07;10.45;;;2.47;;
49820;SDS011;36893;52.520;13.450;2023-12-04T09:28:08;5.82;;;2.38;;
49820;SDS011;36893;52.520;13.450;2023-12-04T09:38:09;7.53;;;2.20;;
49820;SDS011;36893;52.520;13.450;2023-12-04T09:48:10;6.28;;;2.85;;
49820;SDS011;36893;52.520;13.450;2023-12-04T09:58:11;7.10;;;2.17;;
49820;SDS011;36893;52.520;13.450;2023-12-04T10:08:15;7.70;;;2.40;;
49820;SDS011;36893;52.520;13.450;2023-12-04T10:18:23;5.25;;;2.60;;
49820;SDS011;36893;52.520;13.450;2023-12-04T10:28:31;5.63;;;2.70;;
49820;SDS011;36893;52.520;13.450;2023-12-04T10:38:32;7.63;;;2.57;;
49820;SDS011;36893;52.520;13.450;2023-12-04T10:48:32;4.53;;;1.93;;
49820;SDS011;36893;52.520;13.450;2023-12-04T10:58:33;7.37;;;2.33;;
49820;SDS011;36893;52.520;13.450;2023-12-04T11:08:36;4.07;;;2.10;;
49820;SDS011;36893;52.520;13.450;2023-12-04T11:18:39;5.63;;;2.13;;
49820;SDS011;36893;52.520;13.450;2023-12-04T11:28:43;7.15;;;2.30;;
49820;SDS011;36893;52.520;13.450;2023-12-04T11:38:45;5.07;;;2.35;;
49820;SDS011;36893;52.520;13.450;2023-12-04T11:48:47;3.50;;;1.85;;
49820;SDS011;36893;52.520;13.450;2023-12-04T11:58:48;7.68;;;2.05;;
49820;SDS011;36893;52.520;13.450;2023-12-04T12:08:48;3.27;;;1.80;;
49820;SDS011;36893;52.520;13.450;2023-12-04T12:18:49;5.22;;;2.13;;
49820;SDS011;36893;52.520;13.450;2023-12-04T12:28:50;3.78;;;1.50;;
49820;SDS011;36893;52.520;13.450;2023-12-04T12:38:54;5.05;;;1.98;;
49820;SDS011;36893;52.520;13.450;2023-12-04T12:48:54;3.83;;;1.60;;
49820;SDS011;36893;52.520;13.450;2023-12-04T12:58:56;3.50;;;1.80;;
49820;SDS011;36893;52.520;13.450;2023-12-04T13:08:57;3.35;;;1.60;;
49820;SDS011;36893;52.520;13.450;2023-12-04T13:18:57;5.30;;;1.77;;
49820;SDS011;36893;52.520;13.450;2023-12-04T13:28:58;4.07;;;1.67;;
49820;SDS011;36893;52.520;13.450;2023-12-04T13:39:00;4.47;;;2.07;;
49820;SDS011;36893;52.520;13.450;2023-12-04T13:49:02;3.30;;;1.77;;
49820;SDS011;36893;52.520;13.450;2023-12-04T13:59:03;2.97;;;1.70;;
49820;SDS011;36893;52.520;13.450;2023-12-04T14:09:06;3.92;;;1.73;;
49820;SDS011;36893;52.520;13.450;2023-12-04T14:19:14;3.35;;;1.48;;
49820;SDS011;36893;52.520;13.450;2023-12-04T14:29:16;3.20;;;1.70;;
49820;SDS011;36893;52.520;13.450;2023-12-04T14:39:17;2.87;;;1.70;;
49820;SDS011;36893;52.520;13.450;2023-12-04T14:49:18;2.80;;;1.40;;
49820;SDS011;36893;52.520;13.450;2023-12-04T14:59:19;4.68;;;1.30;;
49820;SDS011;36893;52.520;13.450;2023-12-04T15:09:38;2.08;;;1.13;;
49820;SDS011;36893;52.520;13.450;2023-12-04T15:19:57;2.88;;;1.45;;
49820;SDS011;36893;52.520;13.450;2023-12-04T15:30:20;2.30;;;1.23;;
49820;SDS011;36893;52.520;13.450;2023-12-04T15:40:20;2.80;;;1.43;;
49820;SDS011;36893;52.520;13.450;2023-12-04T15:50:21;2.33;;;1.30;;
49820;SDS011;36893;52.520;13.450;2023-12-04T16:00:25;2.50;;;1.42;;
49820;SDS011;36893;52.520;13.450;2023-12-04T16:10:27;2.28;;;1.05;;
49820;SDS011;36893;52.520;13.450;2023-12-04T16:20:30;5.53;;;1.57;;
49820;SDS011;36893;52.520;13.450;2023-12-04T16:30:37;3.15;;;1.55;;
49820;SDS011;36893;52.520;13.450;2023-12-04T16:40:45;4.03;;;1.67;;
49820;SDS011;36893;52.520;13.450;2023-12-04T16:50:45;2.93;;;1.30;;
49820;SDS011;36893;52.520;13.450;2023-12-04T17:00:48;2.67;;;1.35;;
49820;SDS011;36893;52.520;13.450;2023-12-04T17:10:48;4.13;;;1.40;;
49820;SDS011;36893;52.520;13.450;2023-12-04T17:20:49;5.43;;;1.73;;
49820;SDS011;36893;52.520;13.450;2023-12-04T17:30:50;3.17;;;1.37;;
49820;SDS011;36893;52.520;13.450;2023-12-04T17:40:51;4.05;;;1.13;;
49820;SDS011;36893;52.520;13.450;2023-12-04T17:50:52;3.33;;;1.63;;
49820;SDS011;36893;52.520;13.450;2023-12-04T18:00:53;3.53;;;1.13;;
49820;SDS011;36893;52.520;13.450;2023-12-04T18:10:54;1.40;;;1.10;;
49820;SDS011;36893;52.520;13.450;2023-12-04T18:20:55;2.83;;;1.48;;
49820;SDS011;36893;52.520;13.450;2023-12-04T18:30:58;2.28;;;1.20;;
49820;SDS011;36893;52.520;13.450;2023-12-04T18:40:59;1.95;;;1.08;;
49820;SDS011;36893;52.520;13.450;2023-12-04T18:51:00;4.35;;;1.58;;
49820;SDS011;36893;52.520;13.450;2023-12-04T19:01:00;3.88;;;1.58;;
49820;SDS011;36893;52.520;13.450;2023-12-04T19:11:01;5.07;;;1.80;;
49820;SDS011;36893;52.520;13.450;2023-12-04T19:21:03;3.95;;;1.98;;
49820;SDS011;36893;52.520;13.450;2023-12-04T19:31:04;3.20;;;1.63;;
49820;SDS011;36893;52.520;13.450;2023-12-04T19:41:05;6.43;;;1.80;;
49820;SDS011;36893;52.520;13.450;2023-12-04T19:51:07;2.25;;;1.10;;
49820;SDS011;36893;52.520;13.450;2023-12-04T20:01:08;5.22;;;2.15;;
49820;SDS011;36893;52.520;13.450;2023-12-04T20:11:08;3.23;;;1.20;;
49820;SDS011;36893;52.520;13.450;2023-12-04T20:21:09;3.10;;;1.50;;
49820;SDS011;36893;52.520;13.450;2023-12-04T20:31:11;3.53;;;1.60;;
49820;SDS011;36893;52.520;13.450;2023-12-04T20:41:13;4.00;;;1.95;;
49820;SDS011;36893;52.520;13.450;2023-12-04T20:51:14;5.95;;;1.90;;
49820;SDS011;36893;52.520;13.450;2023-12-04T21:01:15;4.33;;;2.00;;
49820;SDS011;36893;52.520;13.450;2023-12-04T21:11:16;3.15;;;1.70;;
49820;SDS011;36893;52.520;13.450;2023-12-04T21:21:18;3.58;;;1.48;;
49820;SDS011;36893;52.520;13.450;2023-12-04T21:31:19;3.20;;;1.50;;
49820;SDS011;36893;52.520;13.450;2023-12-04T21:41:19;2.80;;;1.47;;
49820;SDS011;36893;52.520;13.450;2023-12-04T21:51:23;3.60;;;2.03;;
49820;SDS011;36893;52.520;13.450;2023-12-04T22:01:24;6.28;;;1.85;;
49820;SDS011;36893;52.520;13.450;2023-12-04T22:11:25;5.80;;;2.00;;
49820;SDS011;36893;52.520;13.450;2023-12-04T22:21:26;4.50;;;1.87;;
49820;SDS011;36893;52.520;13.450;2023-12-04T22:31:27;4.63;;;2.38;;
49820;SDS011;36893;52.520;13.450;2023-12-04T22:41:28;7.87;;;1.97;;
49820;SDS011;36893;52.520;13.450;2023-12-04T22:51:28;5.03;;;1.87;;
49820;SDS011;36893;52.520;13.450;2023-12-04T23:01:29;8.37;;;1.57;;
49820;SDS011;36893;52.520;13.450;2023-12-04T23:11:29;4.33;;;1.90;;
49820;SDS011;36893;52.520;13.450;2023-12-04T23:21:30;4.33;;;2.10;;
49820;SDS011;36893;52.520;13.450;2023-12-04T23:31:31;4.97;;;2.30;;
49820;SDS011;36893;52.520;13.450;2023-12-04T23:41:32;4.70;;;1.88;;
49820;SDS011;36893;52.520;13.450;2023-12-04T23:51:32;6.03;;;2.50;;
